Language selection

My Weather Profile Weather Topics  | 

Lake Nipigon: Past 24 Hour Conditions

 

Kenora Airport

12:00 AM CDT 28 September 2021
Disclaimer

This table is a summary of hourly weather conditions for the past 24 hours.
Please note that these observations might not always be representative of weather conditions over their associated marine area.

Date / Time
(CDT)
Wind(knots) Conditions Visibility(km) Pressure(kPa) Air tempC) Relative humidity(%) Dew pointC)
28 September 2021
0:00 S 9 Clear 32 101.1 13 70 8
27 September 2021
23:00 SSE 8 Clear 32 101.1 14 68 8
22:00 S 9 Mainly Clear 32 101.2 15 63 8
21:00 SSE 8 Partly Cloudy 32 101.1 15 58 7
20:00 SE 8 Partly Cloudy 32 101.2 15 56 6
19:00 SSE 6 Partly Cloudy 32 101.2 16 55 7
18:00 SSE 8 Mostly Cloudy 32 101.2 18 47 7
17:00 SSE 8 Partly Cloudy 32 101.2 18 45 6
16:00 S 8 gust 18 Partly Cloudy 32 101.3 19 41 6
15:00 SSW 8 Mostly Cloudy 32 101.3 19 39 5
14:00 SSE 9 Mostly Cloudy 32 101.4 19 47 7
13:00 SSE 8 Partly Cloudy 32 101.4 17 51 7
12:00 SSW 7 Mainly Sunny 32 101.4 16 54 7
11:00 S 5 Mainly Sunny 32 101.4 15 62 8
10:00 SE 5 Mainly Sunny 32 101.4 12 73 7
9:00 ESE 5 Mainly Sunny 32 101.4 9 84 6
8:00 E 5 Mainly Sunny 32 101.4 7 90 6
7:00 E 6 Partly Cloudy 32 101.4 6 93 5
6:00 ENE 6 Mainly Clear 32 101.3 7 89 5
5:00 ENE 7 Clear 32 101.3 7 89 5
4:00 NE 6 Clear 32 101.3 8 85 5
3:00 ENE 6 Partly Cloudy 32 101.2 8 81 5
2:00 NE 6 Mainly Clear 32 101.2 9 81 6
1:00 NE 7 Partly Cloudy 32 101.2 10 79 6
0:00 NE 9 Partly Cloudy 32 101.1 11 74 6

Zoom-in to make a selection

Map of Great Lakes - Lake Superior marine weather areas Mid Superior - 45001 East Superior - 45004 West Superior - 45006 Slate Island - 45136 Lake Of the Woods - 45148 Kenora Airport Royal Island Armstrong Airport Caribou Island Marathon Airport Pukaskwa National Park Thunder Bay Airport Welcome Island Little Flatland Island Sault Ste. Marie Airport Wawa Airport
Legend:
buoy Buoy
land station Land Station

Great Lakes - Lake Superior Area

Another Region

What we are doing

Date modified: